createdAt,value
2022-11-24T00:00:39.754Z,29.39
2022-11-24T00:05:41.231Z,29.35
2022-11-24T00:10:42.713Z,29.58
2022-11-24T00:15:44.180Z,29.14
2022-11-24T00:20:52.135Z,29.62
2022-11-24T00:25:53.635Z,29.22
2022-11-24T00:30:55.137Z,29.44
2022-11-24T00:36:00.186Z,29.42
2022-11-24T00:41:01.655Z,29.44
2022-11-24T00:46:03.169Z,29.13
2022-11-24T00:51:06.253Z,29.19
2022-11-24T00:56:07.929Z,29.15
2022-11-24T01:01:14.895Z,29.31
2022-11-24T01:06:21.476Z,29.10
2022-11-24T01:11:50.392Z,29.19
2022-11-24T01:16:51.865Z,29.31
2022-11-24T01:21:53.418Z,29.37
2022-11-24T01:26:54.991Z,29.23
2022-11-24T01:31:56.448Z,29.22
2022-11-24T01:36:57.912Z,29.17
2022-11-24T01:42:02.448Z,29.20
2022-11-24T01:47:06.992Z,29.31
2022-11-24T01:52:26.386Z,29.42
2022-11-24T01:57:31.323Z,29.01
2022-11-24T02:02:32.844Z,29.29
2022-11-24T02:07:35.100Z,29.01
2022-11-24T02:12:36.899Z,29.06
2022-11-24T02:17:38.336Z,28.74
2022-11-24T02:23:04.495Z,29.21
2022-11-24T02:28:07.528Z,28.95
2022-11-24T02:33:10.186Z,29.05
2022-11-24T02:38:13.298Z,28.75
2022-11-24T02:43:17.648Z,28.94
2022-11-24T02:48:19.117Z,28.72
2022-11-24T02:53:20.601Z,28.79
2022-11-24T02:58:22.075Z,29.14
2022-11-24T03:03:23.664Z,29.11
2022-11-24T03:08:25.133Z,28.97
2022-11-24T03:13:26.575Z,28.88
2022-11-24T03:18:28.097Z,28.75
2022-11-24T03:23:29.531Z,28.32
2022-11-24T03:28:31.061Z,28.78
2022-11-24T03:33:32.811Z,29.27
2022-11-24T03:38:34.314Z,28.95
2022-11-24T03:43:40.463Z,29.13
2022-11-24T03:48:44.871Z,28.75
2022-11-24T03:53:46.346Z,28.53
2022-11-24T03:58:47.814Z,28.87
2022-11-24T04:03:49.290Z,28.76
2022-11-24T04:08:50.771Z,28.86
2022-11-24T04:13:52.314Z,28.87
2022-11-24T04:18:53.765Z,29.12
2022-11-24T04:23:55.239Z,28.95
2022-11-24T04:28:56.755Z,29.07
2022-11-24T04:33:58.209Z,28.97
2022-11-24T04:39:19.461Z,29.13
2022-11-24T04:44:21.179Z,28.95
2022-11-24T04:49:22.652Z,29.17
2022-11-24T04:54:24.118Z,29.01
2022-11-24T04:59:25.569Z,29.14
2022-11-24T05:04:27.049Z,29.14
2022-11-24T05:09:47.873Z,29.14
2022-11-24T05:14:50.512Z,28.92
2022-11-24T05:19:51.901Z,28.63
2022-11-24T05:24:53.274Z,29.03
2022-11-24T05:29:54.764Z,28.78
2022-11-24T05:34:56.651Z,28.90
2022-11-24T05:39:58.054Z,29.04
2022-11-24T05:44:59.677Z,28.69
2022-11-24T05:50:01.074Z,28.66
2022-11-24T05:55:02.527Z,28.75
2022-11-24T06:00:05.323Z,28.58
2022-11-24T06:05:06.898Z,28.94
2022-11-24T06:10:09.451Z,28.55
2022-11-24T06:15:11.154Z,28.41
2022-11-24T06:20:12.564Z,28.65
2022-11-24T06:25:14.231Z,28.45
2022-11-24T06:30:15.647Z,28.50
2022-11-24T06:35:17.199Z,28.65
2022-11-24T06:40:18.632Z,28.70
2022-11-24T06:45:20.078Z,28.54
2022-11-24T06:50:21.851Z,28.27
2022-11-24T06:55:23.252Z,28.85
2022-11-24T07:00:24.669Z,28.49
2022-11-24T07:05:26.091Z,28.92
2022-11-24T07:10:27.492Z,28.74
2022-11-24T07:15:29.440Z,28.79
2022-11-24T07:20:30.799Z,28.78
2022-11-24T07:25:32.212Z,28.90
2022-11-24T07:30:33.642Z,28.64
2022-11-24T07:35:35.171Z,29.00
2022-11-24T07:40:36.569Z,28.68
2022-11-24T07:45:37.982Z,29.12
2022-11-24T07:50:39.387Z,28.79
2022-11-24T07:55:40.764Z,29.02
2022-11-24T08:00:42.417Z,29.22
2022-11-24T08:06:07.684Z,28.93
2022-11-24T08:11:06.926Z,29.43
2022-11-24T08:16:16.132Z,29.27
2022-11-24T08:21:17.688Z,29.34
2022-11-24T08:26:19.266Z,29.39
2022-11-24T08:31:20.810Z,29.47
2022-11-24T08:36:22.223Z,29.40
2022-11-24T08:41:23.675Z,29.62
2022-11-24T08:46:25.141Z,29.54
2022-11-24T08:51:26.800Z,29.84
2022-11-24T08:56:29.404Z,29.90
2022-11-24T09:01:30.852Z,29.95
2022-11-24T09:06:32.268Z,29.96
2022-11-24T09:11:33.810Z,30.23
2022-11-24T09:16:35.301Z,30.03
2022-11-24T09:21:38.833Z,30.12
2022-11-24T09:26:46.170Z,30.54
2022-11-24T09:31:48.969Z,30.54
2022-11-24T09:36:51.424Z,30.49
2022-11-24T09:42:16.273Z,30.64
2022-11-24T09:47:47.899Z,30.91
2022-11-24T09:53:01.069Z,30.90
2022-11-24T09:58:37.112Z,30.84
2022-11-24T10:03:41.733Z,31.08
2022-11-24T10:09:06.181Z,31.02
2022-11-24T10:14:31.704Z,31.20
2022-11-24T10:19:48.153Z,31.09
2022-11-24T10:25:08.949Z,31.22
2022-11-24T10:30:19.900Z,31.00
2022-11-24T10:35:24.303Z,31.40
2022-11-24T10:40:55.803Z,31.15
2022-11-24T10:46:14.261Z,31.55
2022-11-24T10:51:28.675Z,31.18
2022-11-24T10:56:41.582Z,31.28
2022-11-24T11:01:43.033Z,31.05
2022-11-24T11:06:44.429Z,31.54
2022-11-24T11:11:48.235Z,31.88
2022-11-24T11:16:53.466Z,32.02
2022-11-24T11:22:14.332Z,32.85
2022-11-24T11:27:20.631Z,32.63
2022-11-24T11:37:58.147Z,32.94
2022-11-24T11:43:04.778Z,32.89
2022-11-24T11:48:22.051Z,33.03
2022-11-24T11:53:46.402Z,33.60
2022-11-24T11:59:06.392Z,33.33
2022-11-24T12:04:36.898Z,33.44
2022-11-24T12:10:23.248Z,33.18
2022-11-24T12:15:39.608Z,33.07
2022-11-24T12:20:56.208Z,32.87
2022-11-24T12:26:22.519Z,32.83
2022-11-24T12:31:39.186Z,32.86
2022-11-24T12:37:07.986Z,33.05
2022-11-24T12:42:18.260Z,33.25
2022-11-24T12:47:22.775Z,33.04
2022-11-24T12:52:29.727Z,32.94
2022-11-24T12:57:36.867Z,33.09
2022-11-24T13:03:00.145Z,33.18
2022-11-24T13:08:02.852Z,33.02
2022-11-24T13:13:08.028Z,33.01
2022-11-24T13:18:41.237Z,32.86
2022-11-24T13:23:42.680Z,33.08
2022-11-24T13:29:13.357Z,33.23
2022-11-24T13:34:43.664Z,33.08
2022-11-24T13:40:00.618Z,33.35
2022-11-24T13:45:03.056Z,33.49
2022-11-24T13:50:10.916Z,33.49
2022-11-24T13:55:12.177Z,33.47
2022-11-24T14:00:24.782Z,33.45
2022-11-24T14:05:39.075Z,33.71
2022-11-24T14:10:40.650Z,33.69
2022-11-24T14:15:42.113Z,33.64
2022-11-24T14:20:43.500Z,33.55
2022-11-24T14:25:51.584Z,33.59
2022-11-24T14:31:08.947Z,33.51
2022-11-24T14:36:14.875Z,33.54
2022-11-24T14:41:20.221Z,33.68
2022-11-24T14:46:21.671Z,33.59
2022-11-24T14:51:24.255Z,33.75
2022-11-24T14:56:30.163Z,33.53
2022-11-24T15:01:35.912Z,33.62
2022-11-24T15:06:37.355Z,33.46
2022-11-24T15:11:38.712Z,33.69
2022-11-24T15:16:40.115Z,33.57
2022-11-24T15:21:41.492Z,33.58
2022-11-24T15:26:43.000Z,33.58
2022-11-24T15:31:49.420Z,33.64
2022-11-24T15:36:53.879Z,33.88
2022-11-24T15:41:55.247Z,33.68
2022-11-24T15:46:56.720Z,33.92
2022-11-24T15:51:58.146Z,33.51
2022-11-24T15:56:59.511Z,33.62
2022-11-24T16:02:01.018Z,33.45
2022-11-24T16:07:03.679Z,33.17
2022-11-24T16:12:05.293Z,33.22
2022-11-24T16:17:06.664Z,33.35
2022-11-24T16:22:08.058Z,33.23
2022-11-24T16:27:09.483Z,33.02
2022-11-24T16:32:10.927Z,33.00
2022-11-24T16:37:12.367Z,33.05
2022-11-24T16:42:13.779Z,33.05
2022-11-24T16:47:15.724Z,32.93
2022-11-24T16:52:17.207Z,32.95
2022-11-24T16:57:18.595Z,32.99
2022-11-24T17:02:20.000Z,32.98
2022-11-24T17:07:21.470Z,32.67
2022-11-24T17:12:22.927Z,32.83
2022-11-24T17:17:24.309Z,32.86
2022-11-24T17:22:25.683Z,32.79
2022-11-24T17:27:27.169Z,32.67
2022-11-24T17:32:28.652Z,32.77
2022-11-24T17:37:31.898Z,33.00
2022-11-24T17:42:33.463Z,32.74
2022-11-24T17:47:34.951Z,33.01
2022-11-24T17:52:36.319Z,33.12
2022-11-24T17:57:37.690Z,33.03
2022-11-24T18:02:39.089Z,33.07
2022-11-24T18:07:40.531Z,33.10
2022-11-24T18:12:41.976Z,33.42
2022-11-24T18:17:43.339Z,33.40
2022-11-24T18:23:12.394Z,33.44
2022-11-24T18:28:06.065Z,33.35
2022-11-24T18:33:07.432Z,33.60
2022-11-24T18:38:08.881Z,33.55
2022-11-24T18:43:10.262Z,33.60
2022-11-24T18:48:11.662Z,33.87
2022-11-24T18:53:13.047Z,33.67
2022-11-24T18:58:14.783Z,34.12
2022-11-24T19:03:16.195Z,33.93
2022-11-24T19:08:17.664Z,33.99
2022-11-24T19:13:19.040Z,34.08
2022-11-24T19:18:20.915Z,33.63
2022-11-24T19:23:22.382Z,34.15
2022-11-24T19:28:23.744Z,34.11
2022-11-24T19:33:25.112Z,33.92
2022-11-24T19:38:29.849Z,34.20
2022-11-24T19:43:31.711Z,33.83
2022-11-24T19:48:38.104Z,34.01
2022-11-24T19:53:39.471Z,34.08
2022-11-24T19:58:40.972Z,34.34
2022-11-24T20:03:43.250Z,34.39
2022-11-24T20:08:44.668Z,33.89
2022-11-24T20:13:46.363Z,34.22
2022-11-24T20:18:47.865Z,34.22
2022-11-24T20:23:53.899Z,34.29
2022-11-24T20:28:55.491Z,34.26
2022-11-24T20:33:57.391Z,34.18
2022-11-24T20:38:59.894Z,34.14
2022-11-24T20:44:04.751Z,34.29
2022-11-24T20:49:06.836Z,33.98
2022-11-24T20:54:08.351Z,34.16
2022-11-24T20:59:12.415Z,34.30
2022-11-24T21:04:16.200Z,34.02
2022-11-24T21:09:17.639Z,34.07
2022-11-24T21:14:19.024Z,34.16
2022-11-24T21:19:20.444Z,34.36
2022-11-24T21:24:22.073Z,34.05
2022-11-24T21:29:25.404Z,34.09
2022-11-24T21:34:26.778Z,34.08
2022-11-24T21:39:28.171Z,34.16
2022-11-24T21:44:30.893Z,34.22
2022-11-24T21:49:32.308Z,34.10
2022-11-24T21:54:34.056Z,34.25
2022-11-24T21:59:35.610Z,34.21
2022-11-24T22:04:37.183Z,34.16
2022-11-24T22:09:38.711Z,34.24
2022-11-24T22:14:40.681Z,34.26
2022-11-24T22:19:42.280Z,33.96
2022-11-24T22:24:43.696Z,34.09
2022-11-24T22:29:45.792Z,34.16
2022-11-24T22:34:49.287Z,34.26
2022-11-24T22:39:50.810Z,34.19
2022-11-24T22:44:52.179Z,34.19
2022-11-24T22:49:53.583Z,34.38
2022-11-24T22:54:54.947Z,34.46
2022-11-24T22:59:56.315Z,34.44
2022-11-24T23:04:57.680Z,34.21
2022-11-24T23:09:59.108Z,34.54
2022-11-24T23:15:00.488Z,34.34
2022-11-24T23:20:02.246Z,34.30
2022-11-24T23:25:03.699Z,34.36
2022-11-24T23:30:05.823Z,34.19
2022-11-24T23:35:12.332Z,34.29
2022-11-24T23:40:15.143Z,34.24
2022-11-24T23:45:16.511Z,34.33
2022-11-24T23:50:17.989Z,34.21
2022-11-24T23:55:19.355Z,34.25
